Terminal Aerodrome Forecast
Issued by NWS

Home | Current Version | Previous Version | Text Only | Print | Product List | Glossary On
Versions: 1 2 3 4 5 6 7 8 9 10 11 12 13 14 15 16 17 18
000
FTUS43 KTOP 220429 AAC
TAFFOE
TAF AMD
KFOE 220429Z 2204/2224 33010KT 6SM -RA VCTS OVC080CB
     FM220600 31010KT P6SM -SHRA BKN100
     FM220800 32011KT P6SM SCT200=

USA.gov is the U.S. government's official web portal to all federal, state and local government web resources and services.